sensor_id;sensor_type;location;lat;lon;timestamp;temperature;humidity
26378;DHT22;14078;50.974;6.786;2023-09-19T00:01:08;16.10;99.90
26378;DHT22;14078;50.974;6.786;2023-09-19T00:03:36;16.10;99.90
26378;DHT22;14078;50.974;6.786;2023-09-19T00:06:03;16.20;99.90
26378;DHT22;14078;50.974;6.786;2023-09-19T00:08:32;16.10;99.90
26378;DHT22;14078;50.974;6.786;2023-09-19T00:10:59;16.10;99.90
26378;DHT22;14078;50.974;6.786;2023-09-19T00:13:31;16.10;99.90
26378;DHT22;14078;50.974;6.786;2023-09-19T00:15:57;16.00;99.90
26378;DHT22;14078;50.974;6.786;2023-09-19T00:18:24;16.00;99.90
26378;DHT22;14078;50.974;6.786;2023-09-19T00:20:58;16.00;99.90
26378;DHT22;14078;50.974;6.786;2023-09-19T00:23:24;16.00;99.90
26378;DHT22;14078;50.974;6.786;2023-09-19T00:25:51;16.00;99.90
26378;DHT22;14078;50.974;6.786;2023-09-19T00:28:17;15.90;99.90
26378;DHT22;14078;50.974;6.786;2023-09-19T00:30:45;15.90;99.90
26378;DHT22;14078;50.974;6.786;2023-09-19T00:33:15;15.80;99.90
26378;DHT22;14078;50.974;6.786;2023-09-19T00:35:46;15.90;99.90
26378;DHT22;14078;50.974;6.786;2023-09-19T00:38:14;15.80;99.90
26378;DHT22;14078;50.974;6.786;2023-09-19T00:40:43;15.80;99.90
26378;DHT22;14078;50.974;6.786;2023-09-19T00:43:09;15.80;99.90
26378;DHT22;14078;50.974;6.786;2023-09-19T00:45:36;15.80;99.90
26378;DHT22;14078;50.974;6.786;2023-09-19T00:48:04;15.90;99.90
26378;DHT22;14078;50.974;6.786;2023-09-19T00:50:37;16.00;99.90
26378;DHT22;14078;50.974;6.786;2023-09-19T00:53:05;16.10;99.90
26378;DHT22;14078;50.974;6.786;2023-09-19T00:55:34;16.10;99.90
26378;DHT22;14078;50.974;6.786;2023-09-19T00:58:02;16.10;99.90
26378;DHT22;14078;50.974;6.786;2023-09-19T01:00:29;16.20;99.90
26378;DHT22;14078;50.974;6.786;2023-09-19T01:02:57;16.20;99.90
26378;DHT22;14078;50.974;6.786;2023-09-19T01:05:24;16.20;99.90
26378;DHT22;14078;50.974;6.786;2023-09-19T01:07:50;16.20;99.90
26378;DHT22;14078;50.974;6.786;2023-09-19T01:10:19;16.30;99.90
26378;DHT22;14078;50.974;6.786;2023-09-19T01:12:52;16.30;99.90
26378;DHT22;14078;50.974;6.786;2023-09-19T01:15:21;16.20;99.90
26378;DHT22;14078;50.974;6.786;2023-09-19T01:17:57;16.30;99.90
26378;DHT22;14078;50.974;6.786;2023-09-19T01:20:31;16.30;99.90
26378;DHT22;14078;50.974;6.786;2023-09-19T01:23:02;16.30;99.90
26378;DHT22;14078;50.974;6.786;2023-09-19T01:25:42;16.30;99.90
26378;DHT22;14078;50.974;6.786;2023-09-19T01:28:19;16.30;99.90
26378;DHT22;14078;50.974;6.786;2023-09-19T01:30:48;16.30;99.90
26378;DHT22;14078;50.974;6.786;2023-09-19T01:33:19;16.30;99.90
26378;DHT22;14078;50.974;6.786;2023-09-19T01:35:46;16.30;99.90
26378;DHT22;14078;50.974;6.786;2023-09-19T01:38:12;16.20;99.90
26378;DHT22;14078;50.974;6.786;2023-09-19T01:40:41;16.30;99.90
26378;DHT22;14078;50.974;6.786;2023-09-19T01:43:08;16.20;99.90
26378;DHT22;14078;50.974;6.786;2023-09-19T01:45:37;16.20;99.90
26378;DHT22;14078;50.974;6.786;2023-09-19T01:48:11;16.20;99.90
26378;DHT22;14078;50.974;6.786;2023-09-19T01:50:44;16.20;99.90
26378;DHT22;14078;50.974;6.786;2023-09-19T01:53:15;16.20;99.90
26378;DHT22;14078;50.974;6.786;2023-09-19T01:55:46;16.20;99.90
26378;DHT22;14078;50.974;6.786;2023-09-19T01:58:16;16.10;99.90
26378;DHT22;14078;50.974;6.786;2023-09-19T02:00:44;16.10;99.90
26378;DHT22;14078;50.974;6.786;2023-09-19T02:03:16;16.10;99.90
26378;DHT22;14078;50.974;6.786;2023-09-19T02:05:47;16.10;99.90
26378;DHT22;14078;50.974;6.786;2023-09-19T02:08:15;16.10;99.90
26378;DHT22;14078;50.974;6.786;2023-09-19T02:10:43;16.00;99.90
26378;DHT22;14078;50.974;6.786;2023-09-19T02:13:14;16.00;99.90
26378;DHT22;14078;50.974;6.786;2023-09-19T02:15:42;16.00;99.10
26378;DHT22;14078;50.974;6.786;2023-09-19T02:18:09;16.00;97.20
26378;DHT22;14078;50.974;6.786;2023-09-19T02:20:38;16.00;99.90
26378;DHT22;14078;50.974;6.786;2023-09-19T02:23:04;16.00;99.90
26378;DHT22;14078;50.974;6.786;2023-09-19T02:25:31;15.90;99.90
26378;DHT22;14078;50.974;6.786;2023-09-19T02:27:58;15.90;99.90
26378;DHT22;14078;50.974;6.786;2023-09-19T02:30:26;15.80;99.90
26378;DHT22;14078;50.974;6.786;2023-09-19T02:32:53;15.80;99.90
26378;DHT22;14078;50.974;6.786;2023-09-19T02:35:18;15.80;99.90
26378;DHT22;14078;50.974;6.786;2023-09-19T02:37:47;15.80;99.90
26378;DHT22;14078;50.974;6.786;2023-09-19T02:40:14;15.80;99.90
26378;DHT22;14078;50.974;6.786;2023-09-19T02:42:45;15.80;99.90
26378;DHT22;14078;50.974;6.786;2023-09-19T02:45:14;15.70;99.90
26378;DHT22;14078;50.974;6.786;2023-09-19T02:47:41;15.70;99.90
26378;DHT22;14078;50.974;6.786;2023-09-19T02:50:08;15.70;99.90
26378;DHT22;14078;50.974;6.786;2023-09-19T02:52:36;15.70;99.90
26378;DHT22;14078;50.974;6.786;2023-09-19T02:55:04;15.60;99.90
26378;DHT22;14078;50.974;6.786;2023-09-19T02:57:31;15.60;99.90
26378;DHT22;14078;50.974;6.786;2023-09-19T02:59:59;15.50;99.90
26378;DHT22;14078;50.974;6.786;2023-09-19T03:02:26;15.60;99.90
26378;DHT22;14078;50.974;6.786;2023-09-19T03:04:54;15.50;99.90
26378;DHT22;14078;50.974;6.786;2023-09-19T03:07:21;15.60;99.90
26378;DHT22;14078;50.974;6.786;2023-09-19T03:09:48;15.50;99.90
26378;DHT22;14078;50.974;6.786;2023-09-19T03:12:16;15.50;99.90
26378;DHT22;14078;50.974;6.786;2023-09-19T03:14:43;15.50;99.90
26378;DHT22;14078;50.974;6.786;2023-09-19T03:17:09;15.50;99.90
26378;DHT22;14078;50.974;6.786;2023-09-19T03:19:36;15.50;99.90
26378;DHT22;14078;50.974;6.786;2023-09-19T03:22:06;15.40;99.90
26378;DHT22;14078;50.974;6.786;2023-09-19T03:24:33;15.40;99.90
26378;DHT22;14078;50.974;6.786;2023-09-19T03:27:01;15.30;99.90
26378;DHT22;14078;50.974;6.786;2023-09-19T03:29:29;15.30;99.90
26378;DHT22;14078;50.974;6.786;2023-09-19T03:31:56;15.30;99.90
26378;DHT22;14078;50.974;6.786;2023-09-19T03:34:23;15.30;99.90
26378;DHT22;14078;50.974;6.786;2023-09-19T03:36:49;15.30;99.90
26378;DHT22;14078;50.974;6.786;2023-09-19T03:39:16;15.30;99.90
26378;DHT22;14078;50.974;6.786;2023-09-19T03:41:43;15.30;99.90
26378;DHT22;14078;50.974;6.786;2023-09-19T03:44:10;15.20;99.90
26378;DHT22;14078;50.974;6.786;2023-09-19T03:46:38;15.30;99.90
26378;DHT22;14078;50.974;6.786;2023-09-19T03:49:04;15.30;99.90
26378;DHT22;14078;50.974;6.786;2023-09-19T03:51:31;15.30;99.90
26378;DHT22;14078;50.974;6.786;2023-09-19T03:53:59;15.30;99.90
26378;DHT22;14078;50.974;6.786;2023-09-19T03:56:26;15.20;99.90
26378;DHT22;14078;50.974;6.786;2023-09-19T03:58:53;15.20;99.90
26378;DHT22;14078;50.974;6.786;2023-09-19T04:01:20;15.20;99.90
26378;DHT22;14078;50.974;6.786;2023-09-19T04:03:48;15.10;99.90
26378;DHT22;14078;50.974;6.786;2023-09-19T04:06:17;15.10;99.90
26378;DHT22;14078;50.974;6.786;2023-09-19T04:08:43;15.10;99.90
26378;DHT22;14078;50.974;6.786;2023-09-19T04:11:11;15.10;99.90
26378;DHT22;14078;50.974;6.786;2023-09-19T04:13:38;15.10;99.90
26378;DHT22;14078;50.974;6.786;2023-09-19T04:16:04;15.00;99.90
26378;DHT22;14078;50.974;6.786;2023-09-19T04:18:32;15.00;99.90
26378;DHT22;14078;50.974;6.786;2023-09-19T04:21:03;15.00;99.90
26378;DHT22;14078;50.974;6.786;2023-09-19T04:23:31;14.90;99.90
26378;DHT22;14078;50.974;6.786;2023-09-19T04:25:57;14.90;99.90
26378;DHT22;14078;50.974;6.786;2023-09-19T04:28:24;14.90;99.90
26378;DHT22;14078;50.974;6.786;2023-09-19T04:30:50;14.90;99.90
26378;DHT22;14078;50.974;6.786;2023-09-19T04:33:17;14.90;99.90
26378;DHT22;14078;50.974;6.786;2023-09-19T04:35:44;14.80;99.90
26378;DHT22;14078;50.974;6.786;2023-09-19T04:38:11;14.90;99.90
26378;DHT22;14078;50.974;6.786;2023-09-19T04:40:39;14.80;99.90
26378;DHT22;14078;50.974;6.786;2023-09-19T04:43:05;14.80;99.90
26378;DHT22;14078;50.974;6.786;2023-09-19T04:45:32;14.80;99.90
26378;DHT22;14078;50.974;6.786;2023-09-19T04:47:59;14.80;99.90
26378;DHT22;14078;50.974;6.786;2023-09-19T04:50:26;14.80;99.90
26378;DHT22;14078;50.974;6.786;2023-09-19T04:52:53;14.80;99.90
26378;DHT22;14078;50.974;6.786;2023-09-19T04:55:21;14.80;99.90
26378;DHT22;14078;50.974;6.786;2023-09-19T04:57:48;14.80;99.90
26378;DHT22;14078;50.974;6.786;2023-09-19T05:00:14;14.80;99.90
26378;DHT22;14078;50.974;6.786;2023-09-19T05:02:42;14.70;99.90
26378;DHT22;14078;50.974;6.786;2023-09-19T05:05:09;14.80;99.90
26378;DHT22;14078;50.974;6.786;2023-09-19T05:07:36;14.80;99.90
26378;DHT22;14078;50.974;6.786;2023-09-19T05:10:03;14.70;99.90
26378;DHT22;14078;50.974;6.786;2023-09-19T05:12:33;14.70;99.90
26378;DHT22;14078;50.974;6.786;2023-09-19T05:15:00;14.70;99.90
26378;DHT22;14078;50.974;6.786;2023-09-19T05:17:28;14.70;99.90
26378;DHT22;14078;50.974;6.786;2023-09-19T05:19:54;14.70;99.90
26378;DHT22;14078;50.974;6.786;2023-09-19T05:22:21;14.60;99.90
26378;DHT22;14078;50.974;6.786;2023-09-19T05:24:49;14.70;99.90
26378;DHT22;14078;50.974;6.786;2023-09-19T05:27:16;14.60;99.90
26378;DHT22;14078;50.974;6.786;2023-09-19T05:29:44;14.60;99.90
26378;DHT22;14078;50.974;6.786;2023-09-19T05:32:10;14.60;99.90
26378;DHT22;14078;50.974;6.786;2023-09-19T05:34:37;14.70;99.90
26378;DHT22;14078;50.974;6.786;2023-09-19T05:37:04;14.70;99.90
26378;DHT22;14078;50.974;6.786;2023-09-19T05:39:32;14.70;99.90
26378;DHT22;14078;50.974;6.786;2023-09-19T05:41:58;14.70;99.90
26378;DHT22;14078;50.974;6.786;2023-09-19T05:44:25;14.80;99.90
26378;DHT22;14078;50.974;6.786;2023-09-19T05:46:53;14.80;99.90
26378;DHT22;14078;50.974;6.786;2023-09-19T05:49:22;14.80;99.90
26378;DHT22;14078;50.974;6.786;2023-09-19T05:51:50;14.80;99.90
26378;DHT22;14078;50.974;6.786;2023-09-19T05:54:19;14.80;99.90
26378;DHT22;14078;50.974;6.786;2023-09-19T05:56:45;14.80;99.90
26378;DHT22;14078;50.974;6.786;2023-09-19T05:59:12;14.80;99.90
26378;DHT22;14078;50.974;6.786;2023-09-19T06:01:39;14.80;99.90
26378;DHT22;14078;50.974;6.786;2023-09-19T06:04:07;14.80;99.90
26378;DHT22;14078;50.974;6.786;2023-09-19T06:06:33;14.90;99.90
26378;DHT22;14078;50.974;6.786;2023-09-19T06:09:05;14.80;99.90
26378;DHT22;14078;50.974;6.786;2023-09-19T06:11:33;14.90;99.90
26378;DHT22;14078;50.974;6.786;2023-09-19T06:14:00;14.90;99.90
26378;DHT22;14078;50.974;6.786;2023-09-19T06:16:27;14.90;99.90
26378;DHT22;14078;50.974;6.786;2023-09-19T06:18:54;14.90;99.90
26378;DHT22;14078;50.974;6.786;2023-09-19T06:21:22;14.90;99.90
26378;DHT22;14078;50.974;6.786;2023-09-19T06:23:48;14.90;99.90
26378;DHT22;14078;50.974;6.786;2023-09-19T06:26:15;14.90;99.90
26378;DHT22;14078;50.974;6.786;2023-09-19T06:28:42;14.90;99.90
26378;DHT22;14078;50.974;6.786;2023-09-19T06:31:09;15.00;99.90
26378;DHT22;14078;50.974;6.786;2023-09-19T06:33:36;14.90;99.90
26378;DHT22;14078;50.974;6.786;2023-09-19T06:36:04;15.00;99.90
26378;DHT22;14078;50.974;6.786;2023-09-19T06:38:32;15.00;99.90
26378;DHT22;14078;50.974;6.786;2023-09-19T06:40:59;15.10;99.90
26378;DHT22;14078;50.974;6.786;2023-09-19T06:43:26;15.10;99.90
26378;DHT22;14078;50.974;6.786;2023-09-19T06:45:53;15.20;99.90
26378;DHT22;14078;50.974;6.786;2023-09-19T06:48:21;15.20;99.90
26378;DHT22;14078;50.974;6.786;2023-09-19T06:50:50;15.20;99.90
26378;DHT22;14078;50.974;6.786;2023-09-19T06:53:17;15.20;99.90
26378;DHT22;14078;50.974;6.786;2023-09-19T06:55:45;15.30;99.90
26378;DHT22;14078;50.974;6.786;2023-09-19T06:58:13;15.30;99.90
26378;DHT22;14078;50.974;6.786;2023-09-19T07:00:42;15.30;99.90
26378;DHT22;14078;50.974;6.786;2023-09-19T07:03:09;15.30;99.90
26378;DHT22;14078;50.974;6.786;2023-09-19T07:05:37;15.40;99.90
26378;DHT22;14078;50.974;6.786;2023-09-19T07:08:04;15.40;99.90
26378;DHT22;14078;50.974;6.786;2023-09-19T07:10:31;15.50;99.90
26378;DHT22;14078;50.974;6.786;2023-09-19T07:12:59;15.50;99.40
26378;DHT22;14078;50.974;6.786;2023-09-19T07:15:26;15.50;96.20
26378;DHT22;14078;50.974;6.786;2023-09-19T07:17:52;15.50;98.50
26378;DHT22;14078;50.974;6.786;2023-09-19T07:20:19;15.60;99.90
26378;DHT22;14078;50.974;6.786;2023-09-19T07:22:46;15.60;99.90
26378;DHT22;14078;50.974;6.786;2023-09-19T07:25:13;15.70;91.40
26378;DHT22;14078;50.974;6.786;2023-09-19T07:27:40;15.60;91.00
26378;DHT22;14078;50.974;6.786;2023-09-19T07:30:08;15.70;82.20
26378;DHT22;14078;50.974;6.786;2023-09-19T07:32:35;15.70;77.30
26378;DHT22;14078;50.974;6.786;2023-09-19T07:35:02;15.70;69.90
26378;DHT22;14078;50.974;6.786;2023-09-19T07:37:29;15.70;88.40
26378;DHT22;14078;50.974;6.786;2023-09-19T07:39:56;15.80;81.00
26378;DHT22;14078;50.974;6.786;2023-09-19T07:42:22;15.80;85.90
26378;DHT22;14078;50.974;6.786;2023-09-19T07:44:49;15.90;70.20
26378;DHT22;14078;50.974;6.786;2023-09-19T07:47:17;16.00;70.40
26378;DHT22;14078;50.974;6.786;2023-09-19T07:49:46;16.00;56.50
26378;DHT22;14078;50.974;6.786;2023-09-19T07:52:13;16.20;61.40
26378;DHT22;14078;50.974;6.786;2023-09-19T07:54:40;16.30;66.20
26378;DHT22;14078;50.974;6.786;2023-09-19T07:57:09;16.30;47.60
26378;DHT22;14078;50.974;6.786;2023-09-19T07:59:35;16.40;35.00
26378;DHT22;14078;50.974;6.786;2023-09-19T08:02:03;16.50;29.30
26378;DHT22;14078;50.974;6.786;2023-09-19T08:04:31;16.60;26.40
26378;DHT22;14078;50.974;6.786;2023-09-19T08:06:59;16.60;22.40
26378;DHT22;14078;50.974;6.786;2023-09-19T08:09:28;16.60;30.70
26378;DHT22;14078;50.974;6.786;2023-09-19T08:11:58;16.60;24.20
26378;DHT22;14078;50.974;6.786;2023-09-19T08:14:25;16.60;17.00
26378;DHT22;14078;50.974;6.786;2023-09-19T08:16:51;16.70;14.90
26378;DHT22;14078;50.974;6.786;2023-09-19T08:19:22;16.70;3.60
26378;DHT22;14078;50.974;6.786;2023-09-19T08:21:50;16.70;1.00
26378;DHT22;14078;50.974;6.786;2023-09-19T08:24:17;16.80;6.10
26378;DHT22;14078;50.974;6.786;2023-09-19T08:26:44;16.90;1.00
26378;DHT22;14078;50.974;6.786;2023-09-19T08:29:11;16.90;3.70
26378;DHT22;14078;50.974;6.786;2023-09-19T08:31:38;17.00;5.00
26378;DHT22;14078;50.974;6.786;2023-09-19T08:34:04;17.10;1.00
26378;DHT22;14078;50.974;6.786;2023-09-19T08:36:31;17.20;12.00
26378;DHT22;14078;50.974;6.786;2023-09-19T08:38:59;17.20;1.00
26378;DHT22;14078;50.974;6.786;2023-09-19T08:41:26;17.20;1.00
26378;DHT22;14078;50.974;6.786;2023-09-19T08:43:52;17.20;1.00
26378;DHT22;14078;50.974;6.786;2023-09-19T08:46:20;17.20;28.10
26378;DHT22;14078;50.974;6.786;2023-09-19T08:48:47;17.20;99.90
26378;DHT22;14078;50.974;6.786;2023-09-19T08:51:18;17.40;43.60
26378;DHT22;14078;50.974;6.786;2023-09-19T08:53:47;17.40;1.00
26378;DHT22;14078;50.974;6.786;2023-09-19T08:56:18;17.40;99.90
26378;DHT22;14078;50.974;6.786;2023-09-19T08:58:46;17.50;1.00
26378;DHT22;14078;50.974;6.786;2023-09-19T09:01:14;17.50;99.90
26378;DHT22;14078;50.974;6.786;2023-09-19T09:03:41;17.60;99.90
26378;DHT22;14078;50.974;6.786;2023-09-19T09:06:12;17.70;1.00
26378;DHT22;14078;50.974;6.786;2023-09-19T09:08:40;17.70;1.00
26378;DHT22;14078;50.974;6.786;2023-09-19T09:11:07;17.60;1.00
26378;DHT22;14078;50.974;6.786;2023-09-19T09:13:36;17.70;99.90
26378;DHT22;14078;50.974;6.786;2023-09-19T09:16:04;17.80;1.00
26378;DHT22;14078;50.974;6.786;2023-09-19T09:18:30;17.90;99.90
26378;DHT22;14078;50.974;6.786;2023-09-19T09:20:57;18.00;99.90
26378;DHT22;14078;50.974;6.786;2023-09-19T09:23:23;18.00;99.90
26378;DHT22;14078;50.974;6.786;2023-09-19T09:25:51;18.00;99.90
26378;DHT22;14078;50.974;6.786;2023-09-19T09:28:22;18.10;99.90
26378;DHT22;14078;50.974;6.786;2023-09-19T09:30:50;18.20;99.90
26378;DHT22;14078;50.974;6.786;2023-09-19T09:33:16;18.20;59.70
26378;DHT22;14078;50.974;6.786;2023-09-19T09:35:47;18.20;28.40
26378;DHT22;14078;50.974;6.786;2023-09-19T09:38:15;18.20;28.70
26378;DHT22;14078;50.974;6.786;2023-09-19T09:40:47;18.30;21.60
26378;DHT22;14078;50.974;6.786;2023-09-19T09:43:30;18.40;35.70
26378;DHT22;14078;50.974;6.786;2023-09-19T09:46:12;18.50;3.50
26378;DHT22;14078;50.974;6.786;2023-09-19T09:48:55;18.60;8.70
26378;DHT22;14078;50.974;6.786;2023-09-19T09:51:39;18.60;11.10
26378;DHT22;14078;50.974;6.786;2023-09-19T09:54:10;18.60;4.50
26378;DHT22;14078;50.974;6.786;2023-09-19T09:56:51;18.70;4.50
26378;DHT22;14078;50.974;6.786;2023-09-19T09:59:18;18.70;49.00
26378;DHT22;14078;50.974;6.786;2023-09-19T10:01:50;18.80;1.00
26378;DHT22;14078;50.974;6.786;2023-09-19T10:04:27;18.80;9.70
26378;DHT22;14078;50.974;6.786;2023-09-19T10:06:55;19.00;1.00
26378;DHT22;14078;50.974;6.786;2023-09-19T10:09:22;18.80;1.00
26378;DHT22;14078;50.974;6.786;2023-09-19T10:12:00;18.80;1.00
26378;DHT22;14078;50.974;6.786;2023-09-19T10:14:30;19.00;1.00
26378;DHT22;14078;50.974;6.786;2023-09-19T10:16:58;19.10;1.00
26378;DHT22;14078;50.974;6.786;2023-09-19T10:19:29;19.10;1.00
26378;DHT22;14078;50.974;6.786;2023-09-19T10:21:59;19.10;1.00
26378;DHT22;14078;50.974;6.786;2023-09-19T10:24:28;19.10;1.00
26378;DHT22;14078;50.974;6.786;2023-09-19T10:26:56;19.10;1.00
26378;DHT22;14078;50.974;6.786;2023-09-19T10:29:23;19.20;1.00
26378;DHT22;14078;50.974;6.786;2023-09-19T10:31:51;19.20;1.00
26378;DHT22;14078;50.974;6.786;2023-09-19T10:34:20;19.30;1.00
26378;DHT22;14078;50.974;6.786;2023-09-19T10:36:46;19.30;1.00
26378;DHT22;14078;50.974;6.786;2023-09-19T10:39:14;19.30;1.00
26378;DHT22;14078;50.974;6.786;2023-09-19T10:41:43;19.30;1.00
26378;DHT22;14078;50.974;6.786;2023-09-19T10:44:19;19.30;1.00
26378;DHT22;14078;50.974;6.786;2023-09-19T10:46:47;19.40;1.00
26378;DHT22;14078;50.974;6.786;2023-09-19T10:49:14;19.50;1.00
26378;DHT22;14078;50.974;6.786;2023-09-19T10:51:42;19.50;1.00
26378;DHT22;14078;50.974;6.786;2023-09-19T10:54:11;19.60;1.00
26378;DHT22;14078;50.974;6.786;2023-09-19T10:56:39;19.60;1.00
26378;DHT22;14078;50.974;6.786;2023-09-19T10:59:10;19.60;1.00
26378;DHT22;14078;50.974;6.786;2023-09-19T11:01:44;19.70;1.00
26378;DHT22;14078;50.974;6.786;2023-09-19T11:04:22;19.80;1.00
26378;DHT22;14078;50.974;6.786;2023-09-19T11:07:00;19.80;1.00
26378;DHT22;14078;50.974;6.786;2023-09-19T11:09:42;19.70;1.00
26378;DHT22;14078;50.974;6.786;2023-09-19T11:12:11;19.70;1.00
26378;DHT22;14078;50.974;6.786;2023-09-19T11:14:38;19.90;1.00
26378;DHT22;14078;50.974;6.786;2023-09-19T11:20:19;19.80;1.00
26378;DHT22;14078;50.974;6.786;2023-09-19T11:23:23;19.90;1.00
26378;DHT22;14078;50.974;6.786;2023-09-19T11:25:51;19.90;1.00
26378;DHT22;14078;50.974;6.786;2023-09-19T11:28:29;19.90;1.00
26378;DHT22;14078;50.974;6.786;2023-09-19T11:30:56;19.90;1.00
26378;DHT22;14078;50.974;6.786;2023-09-19T11:33:24;19.80;1.00
26378;DHT22;14078;50.974;6.786;2023-09-19T11:36:00;19.90;1.00
26378;DHT22;14078;50.974;6.786;2023-09-19T11:46:52;20.10;1.00
26378;DHT22;14078;50.974;6.786;2023-09-19T11:49:25;20.20;1.00
26378;DHT22;14078;50.974;6.786;2023-09-19T11:51:55;20.30;1.00
26378;DHT22;14078;50.974;6.786;2023-09-19T11:54:22;20.30;1.00
26378;DHT22;14078;50.974;6.786;2023-09-19T11:56:51;20.30;1.00
26378;DHT22;14078;50.974;6.786;2023-09-19T11:59:19;20.30;1.00
26378;DHT22;14078;50.974;6.786;2023-09-19T12:01:50;20.30;1.00
26378;DHT22;14078;50.974;6.786;2023-09-19T12:04:20;20.30;1.00
26378;DHT22;14078;50.974;6.786;2023-09-19T12:06:57;20.30;1.00
26378;DHT22;14078;50.974;6.786;2023-09-19T12:09:24;20.20;1.00
26378;DHT22;14078;50.974;6.786;2023-09-19T12:11:50;20.20;1.00
26378;DHT22;14078;50.974;6.786;2023-09-19T12:14:23;20.20;1.00
26378;DHT22;14078;50.974;6.786;2023-09-19T12:16:52;20.20;1.00
26378;DHT22;14078;50.974;6.786;2023-09-19T12:19:22;20.20;1.00
26378;DHT22;14078;50.974;6.786;2023-09-19T12:21:58;20.20;1.00
26378;DHT22;14078;50.974;6.786;2023-09-19T12:24:30;20.30;1.00
26378;DHT22;14078;50.974;6.786;2023-09-19T12:27:00;20.40;1.00
26378;DHT22;14078;50.974;6.786;2023-09-19T12:29:29;20.30;1.00
26378;DHT22;14078;50.974;6.786;2023-09-19T12:31:57;20.30;1.00
26378;DHT22;14078;50.974;6.786;2023-09-19T12:34:25;20.50;1.00
26378;DHT22;14078;50.974;6.786;2023-09-19T12:37:06;20.60;1.00
26378;DHT22;14078;50.974;6.786;2023-09-19T12:39:37;20.50;1.00
26378;DHT22;14078;50.974;6.786;2023-09-19T12:42:04;20.60;1.00
26378;DHT22;14078;50.974;6.786;2023-09-19T12:44:34;20.70;1.00
26378;DHT22;14078;50.974;6.786;2023-09-19T12:47:08;20.70;1.00
26378;DHT22;14078;50.974;6.786;2023-09-19T12:49:36;20.70;1.00
26378;DHT22;14078;50.974;6.786;2023-09-19T12:52:03;20.80;1.00
26378;DHT22;14078;50.974;6.786;2023-09-19T12:54:37;20.80;1.00
26378;DHT22;14078;50.974;6.786;2023-09-19T12:57:05;20.80;1.00
26378;DHT22;14078;50.974;6.786;2023-09-19T12:59:31;20.80;1.00
26378;DHT22;14078;50.974;6.786;2023-09-19T13:02:03;20.90;1.00
26378;DHT22;14078;50.974;6.786;2023-09-19T13:04:31;20.90;1.00
26378;DHT22;14078;50.974;6.786;2023-09-19T13:07:01;20.90;1.00
26378;DHT22;14078;50.974;6.786;2023-09-19T13:09:27;21.00;1.00
26378;DHT22;14078;50.974;6.786;2023-09-19T13:11:59;21.00;1.00
26378;DHT22;14078;50.974;6.786;2023-09-19T13:14:28;21.10;1.00
26378;DHT22;14078;50.974;6.786;2023-09-19T13:16:57;21.10;1.00
26378;DHT22;14078;50.974;6.786;2023-09-19T13:19:36;21.10;1.00
26378;DHT22;14078;50.974;6.786;2023-09-19T13:22:06;21.20;1.00
26378;DHT22;14078;50.974;6.786;2023-09-19T13:24:56;21.30;1.00
26378;DHT22;14078;50.974;6.786;2023-09-19T13:27:23;21.30;1.00
26378;DHT22;14078;50.974;6.786;2023-09-19T13:29:50;21.40;1.00
26378;DHT22;14078;50.974;6.786;2023-09-19T13:32:16;21.50;1.00
26378;DHT22;14078;50.974;6.786;2023-09-19T13:34:43;21.50;1.00
26378;DHT22;14078;50.974;6.786;2023-09-19T13:37:11;21.50;1.00
26378;DHT22;14078;50.974;6.786;2023-09-19T13:39:38;21.40;1.00
26378;DHT22;14078;50.974;6.786;2023-09-19T13:42:08;21.30;1.00
26378;DHT22;14078;50.974;6.786;2023-09-19T13:44:37;21.30;1.00
26378;DHT22;14078;50.974;6.786;2023-09-19T13:47:03;21.50;1.00
26378;DHT22;14078;50.974;6.786;2023-09-19T13:49:34;21.50;1.00
26378;DHT22;14078;50.974;6.786;2023-09-19T13:52:01;21.60;1.00
26378;DHT22;14078;50.974;6.786;2023-09-19T13:54:31;21.60;1.00
26378;DHT22;14078;50.974;6.786;2023-09-19T13:56:58;21.60;1.00
26378;DHT22;14078;50.974;6.786;2023-09-19T13:59:26;21.70;1.00
26378;DHT22;14078;50.974;6.786;2023-09-19T14:01:54;21.50;1.00
26378;DHT22;14078;50.974;6.786;2023-09-19T14:04:21;21.30;1.00
26378;DHT22;14078;50.974;6.786;2023-09-19T14:06:48;21.20;1.00
26378;DHT22;14078;50.974;6.786;2023-09-19T14:09:14;21.20;1.00
26378;DHT22;14078;50.974;6.786;2023-09-19T14:11:43;21.20;1.00
26378;DHT22;14078;50.974;6.786;2023-09-19T14:14:12;21.10;1.00
26378;DHT22;14078;50.974;6.786;2023-09-19T14:16:39;21.00;1.00
26378;DHT22;14078;50.974;6.786;2023-09-19T14:19:07;21.00;1.00
26378;DHT22;14078;50.974;6.786;2023-09-19T14:21:34;21.00;1.00
26378;DHT22;14078;50.974;6.786;2023-09-19T14:24:01;21.00;1.00
26378;DHT22;14078;50.974;6.786;2023-09-19T14:26:28;20.90;1.00
26378;DHT22;14078;50.974;6.786;2023-09-19T14:28:56;20.90;1.00
26378;DHT22;14078;50.974;6.786;2023-09-19T14:31:23;20.90;1.00
26378;DHT22;14078;50.974;6.786;2023-09-19T14:33:54;20.90;1.00
26378;DHT22;14078;50.974;6.786;2023-09-19T14:36:21;20.90;1.00
26378;DHT22;14078;50.974;6.786;2023-09-19T14:38:52;20.90;1.00
26378;DHT22;14078;50.974;6.786;2023-09-19T14:41:20;21.00;1.00
26378;DHT22;14078;50.974;6.786;2023-09-19T14:43:46;21.00;1.00
26378;DHT22;14078;50.974;6.786;2023-09-19T14:46:14;21.00;1.00
26378;DHT22;14078;50.974;6.786;2023-09-19T14:48:41;21.10;1.00
26378;DHT22;14078;50.974;6.786;2023-09-19T14:51:08;21.20;1.00
26378;DHT22;14078;50.974;6.786;2023-09-19T14:53:37;21.10;1.00
26378;DHT22;14078;50.974;6.786;2023-09-19T14:56:04;21.20;1.00
26378;DHT22;14078;50.974;6.786;2023-09-19T14:58:30;21.10;1.00
26378;DHT22;14078;50.974;6.786;2023-09-19T15:01:02;21.10;1.00
26378;DHT22;14078;50.974;6.786;2023-09-19T15:03:30;20.90;1.00
26378;DHT22;14078;50.974;6.786;2023-09-19T15:05:58;20.70;1.00
26378;DHT22;14078;50.974;6.786;2023-09-19T15:08:25;20.60;1.00
26378;DHT22;14078;50.974;6.786;2023-09-19T15:10:52;20.60;1.00
26378;DHT22;14078;50.974;6.786;2023-09-19T15:13:18;20.50;1.00
26378;DHT22;14078;50.974;6.786;2023-09-19T15:15:45;20.50;1.00
26378;DHT22;14078;50.974;6.786;2023-09-19T15:18:13;20.40;1.00
26378;DHT22;14078;50.974;6.786;2023-09-19T15:20:43;20.40;1.00
26378;DHT22;14078;50.974;6.786;2023-09-19T15:23:10;20.50;1.00
26378;DHT22;14078;50.974;6.786;2023-09-19T15:25:38;20.40;1.00
26378;DHT22;14078;50.974;6.786;2023-09-19T15:28:06;20.50;1.00
26378;DHT22;14078;50.974;6.786;2023-09-19T15:30:36;20.50;1.00
26378;DHT22;14078;50.974;6.786;2023-09-19T15:33:02;20.50;1.00
26378;DHT22;14078;50.974;6.786;2023-09-19T15:35:29;20.50;1.00
26378;DHT22;14078;50.974;6.786;2023-09-19T15:37:57;20.50;1.00
26378;DHT22;14078;50.974;6.786;2023-09-19T15:40:24;20.60;1.00
26378;DHT22;14078;50.974;6.786;2023-09-19T15:42:51;20.60;1.00
26378;DHT22;14078;50.974;6.786;2023-09-19T15:45:18;20.50;1.00
26378;DHT22;14078;50.974;6.786;2023-09-19T15:47:45;20.50;1.00
26378;DHT22;14078;50.974;6.786;2023-09-19T15:50:11;20.40;1.00
26378;DHT22;14078;50.974;6.786;2023-09-19T15:52:40;20.40;1.00
26378;DHT22;14078;50.974;6.786;2023-09-19T15:55:09;20.40;1.00
26378;DHT22;14078;50.974;6.786;2023-09-19T15:57:37;20.30;1.00